sensor_id;sensor_type;location;lat;lon;timestamp;P1;durP1;ratioP1;P2;durP2;ratioP2
19032;SDS011;9649;51.042;13.804;2023-06-22T00:03:58;9.18;;;6.93;;
19032;SDS011;9649;51.042;13.804;2023-06-22T00:09:02;10.45;;;7.00;;
19032;SDS011;9649;51.042;13.804;2023-06-22T00:14:05;10.45;;;7.43;;
19032;SDS011;9649;51.042;13.804;2023-06-22T00:19:08;8.82;;;7.13;;
19032;SDS011;9649;51.042;13.804;2023-06-22T00:24:14;10.75;;;7.47;;
19032;SDS011;9649;51.042;13.804;2023-06-22T00:29:17;10.23;;;7.57;;
19032;SDS011;9649;51.042;13.804;2023-06-22T00:34:20;8.65;;;7.22;;
19032;SDS011;9649;51.042;13.804;2023-06-22T00:39:24;10.73;;;7.35;;
19032;SDS011;9649;51.042;13.804;2023-06-22T00:44:26;10.13;;;7.45;;
19032;SDS011;9649;51.042;13.804;2023-06-22T00:49:29;9.93;;;7.40;;
19032;SDS011;9649;51.042;13.804;2023-06-22T00:54:33;8.85;;;7.55;;
19032;SDS011;9649;51.042;13.804;2023-06-22T00:59:37;9.80;;;6.82;;
19032;SDS011;9649;51.042;13.804;2023-06-22T01:04:40;11.93;;;7.60;;
19032;SDS011;9649;51.042;13.804;2023-06-22T01:09:49;8.77;;;7.22;;
19032;SDS011;9649;51.042;13.804;2023-06-22T01:14:57;9.15;;;7.28;;
19032;SDS011;9649;51.042;13.804;2023-06-22T01:20:04;9.25;;;7.35;;
19032;SDS011;9649;51.042;13.804;2023-06-22T01:25:13;13.57;;;7.20;;
19032;SDS011;9649;51.042;13.804;2023-06-22T01:30:23;10.82;;;7.57;;
19032;SDS011;9649;51.042;13.804;2023-06-22T01:35:28;12.75;;;7.78;;
19032;SDS011;9649;51.042;13.804;2023-06-22T01:40:31;11.50;;;8.20;;
19032;SDS011;9649;51.042;13.804;2023-06-22T01:45:36;11.80;;;8.40;;
19032;SDS011;9649;51.042;13.804;2023-06-22T01:50:39;14.43;;;8.48;;
19032;SDS011;9649;51.042;13.804;2023-06-22T01:55:42;10.35;;;7.82;;
19032;SDS011;9649;51.042;13.804;2023-06-22T02:00:48;11.68;;;8.30;;
19032;SDS011;9649;51.042;13.804;2023-06-22T02:05:54;12.13;;;8.20;;
19032;SDS011;9649;51.042;13.804;2023-06-22T02:11:03;9.90;;;8.55;;
19032;SDS011;9649;51.042;13.804;2023-06-22T02:16:10;9.93;;;8.20;;
19032;SDS011;9649;51.042;13.804;2023-06-22T02:21:13;11.93;;;8.32;;
19032;SDS011;9649;51.042;13.804;2023-06-22T02:26:16;10.25;;;8.32;;
19032;SDS011;9649;51.042;13.804;2023-06-22T02:31:21;13.60;;;8.82;;
19032;SDS011;9649;51.042;13.804;2023-06-22T02:36:24;12.18;;;8.45;;
19032;SDS011;9649;51.042;13.804;2023-06-22T02:41:27;12.65;;;8.70;;
19032;SDS011;9649;51.042;13.804;2023-06-22T02:46:32;10.52;;;8.05;;
19032;SDS011;9649;51.042;13.804;2023-06-22T02:51:34;12.73;;;8.50;;
19032;SDS011;9649;51.042;13.804;2023-06-22T02:56:37;15.10;;;8.18;;
19032;SDS011;9649;51.042;13.804;2023-06-22T03:01:43;13.15;;;9.00;;
19032;SDS011;9649;51.042;13.804;2023-06-22T03:06:46;9.43;;;7.85;;
19032;SDS011;9649;51.042;13.804;2023-06-22T03:11:52;10.07;;;8.80;;
19032;SDS011;9649;51.042;13.804;2023-06-22T03:16:56;11.02;;;8.50;;
19032;SDS011;9649;51.042;13.804;2023-06-22T03:22:04;14.82;;;9.07;;
19032;SDS011;9649;51.042;13.804;2023-06-22T03:27:08;11.80;;;8.35;;
19032;SDS011;9649;51.042;13.804;2023-06-22T03:32:12;10.25;;;8.05;;
19032;SDS011;9649;51.042;13.804;2023-06-22T03:37:14;9.52;;;8.30;;
19032;SDS011;9649;51.042;13.804;2023-06-22T03:42:17;13.68;;;8.13;;
19032;SDS011;9649;51.042;13.804;2023-06-22T03:47:21;39.05;;;20.98;;
19032;SDS011;9649;51.042;13.804;2023-06-22T03:52:24;22.98;;;13.73;;
19032;SDS011;9649;51.042;13.804;2023-06-22T03:57:27;22.17;;;12.73;;
19032;SDS011;9649;51.042;13.804;2023-06-22T04:02:31;12.93;;;9.02;;
19032;SDS011;9649;51.042;13.804;2023-06-22T04:07:34;13.23;;;9.23;;
19032;SDS011;9649;51.042;13.804;2023-06-22T04:12:38;11.38;;;8.60;;
19032;SDS011;9649;51.042;13.804;2023-06-22T04:17:42;14.45;;;9.63;;
19032;SDS011;9649;51.042;13.804;2023-06-22T04:22:45;11.52;;;8.93;;
19032;SDS011;9649;51.042;13.804;2023-06-22T04:27:47;16.10;;;9.25;;
19032;SDS011;9649;51.042;13.804;2023-06-22T04:32:51;12.57;;;9.00;;
19032;SDS011;9649;51.042;13.804;2023-06-22T04:37:59;12.48;;;9.23;;
19032;SDS011;9649;51.042;13.804;2023-06-22T04:43:02;13.68;;;9.32;;
19032;SDS011;9649;51.042;13.804;2023-06-22T04:48:06;10.52;;;8.73;;
19032;SDS011;9649;51.042;13.804;2023-06-22T04:53:09;13.77;;;9.10;;
19032;SDS011;9649;51.042;13.804;2023-06-22T04:58:14;12.68;;;9.20;;
19032;SDS011;9649;51.042;13.804;2023-06-22T05:03:18;11.80;;;8.77;;
19032;SDS011;9649;51.042;13.804;2023-06-22T05:08:21;11.98;;;8.10;;
19032;SDS011;9649;51.042;13.804;2023-06-22T05:13:27;11.48;;;8.20;;
19032;SDS011;9649;51.042;13.804;2023-06-22T05:18:31;10.10;;;7.93;;
19032;SDS011;9649;51.042;13.804;2023-06-22T05:23:36;11.70;;;9.27;;
19032;SDS011;9649;51.042;13.804;2023-06-22T05:28:38;11.32;;;8.68;;
19032;SDS011;9649;51.042;13.804;2023-06-22T05:33:43;11.10;;;8.00;;
19032;SDS011;9649;51.042;13.804;2023-06-22T05:38:46;13.70;;;8.75;;
19032;SDS011;9649;51.042;13.804;2023-06-22T05:43:49;11.25;;;8.75;;
19032;SDS011;9649;51.042;13.804;2023-06-22T05:48:53;15.60;;;8.25;;
19032;SDS011;9649;51.042;13.804;2023-06-22T05:53:56;13.40;;;7.97;;
19032;SDS011;9649;51.042;13.804;2023-06-22T05:58:58;13.70;;;9.75;;
19032;SDS011;9649;51.042;13.804;2023-06-22T06:04:03;10.30;;;8.48;;
19032;SDS011;9649;51.042;13.804;2023-06-22T06:09:06;10.00;;;8.20;;
19032;SDS011;9649;51.042;13.804;2023-06-22T06:14:09;12.00;;;8.07;;
19032;SDS011;9649;51.042;13.804;2023-06-22T06:19:13;9.70;;;8.27;;
19032;SDS011;9649;51.042;13.804;2023-06-22T06:24:16;10.68;;;7.82;;
19032;SDS011;9649;51.042;13.804;2023-06-22T06:29:18;14.95;;;8.55;;
19032;SDS011;9649;51.042;13.804;2023-06-22T06:34:22;11.90;;;7.43;;
19032;SDS011;9649;51.042;13.804;2023-06-22T06:39:25;12.18;;;7.47;;
19032;SDS011;9649;51.042;13.804;2023-06-22T06:44:28;10.43;;;7.47;;
19032;SDS011;9649;51.042;13.804;2023-06-22T06:49:33;11.63;;;8.10;;
19032;SDS011;9649;51.042;13.804;2023-06-22T06:54:36;11.68;;;8.18;;
19032;SDS011;9649;51.042;13.804;2023-06-22T06:59:38;13.50;;;7.80;;
19032;SDS011;9649;51.042;13.804;2023-06-22T07:04:42;15.27;;;12.27;;
19032;SDS011;9649;51.042;13.804;2023-06-22T07:09:46;11.75;;;7.70;;
19032;SDS011;9649;51.042;13.804;2023-06-22T07:14:48;9.57;;;7.05;;
19032;SDS011;9649;51.042;13.804;2023-06-22T07:19:53;12.75;;;7.90;;
19032;SDS011;9649;51.042;13.804;2023-06-22T07:24:56;9.57;;;7.85;;
19032;SDS011;9649;51.042;13.804;2023-06-22T07:29:58;11.73;;;8.35;;
19032;SDS011;9649;51.042;13.804;2023-06-22T07:35:03;9.60;;;7.82;;
19032;SDS011;9649;51.042;13.804;2023-06-22T07:40:08;8.50;;;7.07;;
19032;SDS011;9649;51.042;13.804;2023-06-22T07:45:11;8.88;;;7.60;;
19032;SDS011;9649;51.042;13.804;2023-06-22T07:50:15;10.40;;;7.45;;
19032;SDS011;9649;51.042;13.804;2023-06-22T07:55:18;7.90;;;7.10;;
19032;SDS011;9649;51.042;13.804;2023-06-22T08:00:21;9.55;;;7.25;;
19032;SDS011;9649;51.042;13.804;2023-06-22T08:05:25;7.93;;;7.13;;
19032;SDS011;9649;51.042;13.804;2023-06-22T08:10:29;8.93;;;7.53;;
19032;SDS011;9649;51.042;13.804;2023-06-22T08:15:31;10.48;;;6.88;;
19032;SDS011;9649;51.042;13.804;2023-06-22T08:20:35;10.10;;;6.80;;
19032;SDS011;9649;51.042;13.804;2023-06-22T08:25:38;9.07;;;6.22;;
19032;SDS011;9649;51.042;13.804;2023-06-22T08:30:41;9.48;;;5.93;;
19032;SDS011;9649;51.042;13.804;2023-06-22T08:35:45;7.97;;;6.07;;
19032;SDS011;9649;51.042;13.804;2023-06-22T08:40:48;6.47;;;5.75;;
19032;SDS011;9649;51.042;13.804;2023-06-22T08:45:51;13.18;;;6.60;;
19032;SDS011;9649;51.042;13.804;2023-06-22T08:50:55;6.78;;;5.93;;
19032;SDS011;9649;51.042;13.804;2023-06-22T08:55:58;8.52;;;5.95;;
19032;SDS011;9649;51.042;13.804;2023-06-22T09:01:00;6.50;;;5.90;;
19032;SDS011;9649;51.042;13.804;2023-06-22T09:06:05;6.00;;;5.32;;
19032;SDS011;9649;51.042;13.804;2023-06-22T09:11:10;6.28;;;5.43;;
19032;SDS011;9649;51.042;13.804;2023-06-22T09:16:13;6.63;;;5.50;;
19032;SDS011;9649;51.042;13.804;2023-06-22T09:21:17;5.88;;;5.18;;
19032;SDS011;9649;51.042;13.804;2023-06-22T09:26:20;7.10;;;5.47;;
19032;SDS011;9649;51.042;13.804;2023-06-22T09:31:23;5.35;;;4.82;;
19032;SDS011;9649;51.042;13.804;2023-06-22T09:36:29;6.60;;;5.35;;
19032;SDS011;9649;51.042;13.804;2023-06-22T09:41:32;6.18;;;5.30;;
19032;SDS011;9649;51.042;13.804;2023-06-22T09:46:34;7.45;;;5.97;;
19032;SDS011;9649;51.042;13.804;2023-06-22T09:51:38;5.70;;;5.05;;
19032;SDS011;9649;51.042;13.804;2023-06-22T09:56:41;5.38;;;4.30;;
19032;SDS011;9649;51.042;13.804;2023-06-22T10:01:44;5.55;;;4.93;;
19032;SDS011;9649;51.042;13.804;2023-06-22T10:06:48;5.30;;;4.80;;
19032;SDS011;9649;51.042;13.804;2023-06-22T10:11:51;7.72;;;5.28;;
19032;SDS011;9649;51.042;13.804;2023-06-22T10:16:54;5.40;;;4.35;;
19032;SDS011;9649;51.042;13.804;2023-06-22T10:22:01;8.27;;;5.50;;
19032;SDS011;9649;51.042;13.804;2023-06-22T10:27:04;6.28;;;5.35;;
19032;SDS011;9649;51.042;13.804;2023-06-22T10:32:08;7.60;;;5.90;;
19032;SDS011;9649;51.042;13.804;2023-06-22T10:37:12;6.70;;;5.78;;
19032;SDS011;9649;51.042;13.804;2023-06-22T10:42:15;6.85;;;6.05;;
19032;SDS011;9649;51.042;13.804;2023-06-22T10:47:18;9.05;;;5.22;;
19032;SDS011;9649;51.042;13.804;2023-06-22T10:52:22;6.93;;;5.00;;
19032;SDS011;9649;51.042;13.804;2023-06-22T10:57:24;6.53;;;5.22;;
19032;SDS011;9649;51.042;13.804;2023-06-22T11:02:27;7.15;;;5.07;;
19032;SDS011;9649;51.042;13.804;2023-06-22T11:07:31;9.88;;;5.03;;
19032;SDS011;9649;51.042;13.804;2023-06-22T11:12:34;5.93;;;5.32;;
19032;SDS011;9649;51.042;13.804;2023-06-22T11:17:37;6.03;;;5.18;;
19032;SDS011;9649;51.042;13.804;2023-06-22T11:22:41;5.10;;;4.63;;
19032;SDS011;9649;51.042;13.804;2023-06-22T11:27:44;4.68;;;4.28;;
19032;SDS011;9649;51.042;13.804;2023-06-22T11:32:47;5.70;;;4.50;;
19032;SDS011;9649;51.042;13.804;2023-06-22T11:37:51;5.75;;;4.80;;
19032;SDS011;9649;51.042;13.804;2023-06-22T11:42:54;6.55;;;4.95;;
19032;SDS011;9649;51.042;13.804;2023-06-22T11:47:57;5.30;;;4.80;;
19032;SDS011;9649;51.042;13.804;2023-06-22T11:53:01;7.55;;;5.43;;
19032;SDS011;9649;51.042;13.804;2023-06-22T11:58:03;6.97;;;4.90;;
19032;SDS011;9649;51.042;13.804;2023-06-22T12:03:07;5.45;;;4.55;;
19032;SDS011;9649;51.042;13.804;2023-06-22T12:08:12;5.97;;;4.78;;
19032;SDS011;9649;51.042;13.804;2023-06-22T12:13:15;6.57;;;5.20;;
19032;SDS011;9649;51.042;13.804;2023-06-22T12:18:18;6.00;;;4.88;;
19032;SDS011;9649;51.042;13.804;2023-06-22T12:23:23;5.53;;;4.93;;
19032;SDS011;9649;51.042;13.804;2023-06-22T12:28:26;8.00;;;5.20;;
19032;SDS011;9649;51.042;13.804;2023-06-22T12:33:28;6.88;;;5.13;;
19032;SDS011;9649;51.042;13.804;2023-06-22T12:38:33;6.63;;;4.78;;
19032;SDS011;9649;51.042;13.804;2023-06-22T12:43:35;5.63;;;4.43;;
19032;SDS011;9649;51.042;13.804;2023-06-22T12:48:38;5.18;;;4.60;;
19032;SDS011;9649;51.042;13.804;2023-06-22T12:53:44;5.85;;;5.07;;
19032;SDS011;9649;51.042;13.804;2023-06-22T12:58:47;5.82;;;5.28;;
19032;SDS011;9649;51.042;13.804;2023-06-22T13:03:50;5.88;;;5.00;;
19032;SDS011;9649;51.042;13.804;2023-06-22T13:08:54;8.07;;;4.57;;
19032;SDS011;9649;51.042;13.804;2023-06-22T13:14:17;5.93;;;5.10;;
19032;SDS011;9649;51.042;13.804;2023-06-22T13:19:19;6.15;;;5.00;;
19032;SDS011;9649;51.042;13.804;2023-06-22T13:24:24;6.90;;;5.43;;
19032;SDS011;9649;51.042;13.804;2023-06-22T13:29:27;8.68;;;5.30;;
19032;SDS011;9649;51.042;13.804;2023-06-22T13:34:29;7.20;;;5.38;;
19032;SDS011;9649;51.042;13.804;2023-06-22T13:39:33;5.63;;;4.90;;
19032;SDS011;9649;51.042;13.804;2023-06-22T13:44:36;5.78;;;5.18;;
19032;SDS011;9649;51.042;13.804;2023-06-22T13:49:39;6.97;;;4.55;;
19032;SDS011;9649;51.042;13.804;2023-06-22T13:54:43;5.53;;;4.80;;
19032;SDS011;9649;51.042;13.804;2023-06-22T13:59:46;6.95;;;5.50;;
19032;SDS011;9649;51.042;13.804;2023-06-22T14:04:48;5.15;;;4.63;;
19032;SDS011;9649;51.042;13.804;2023-06-22T14:09:53;8.82;;;5.40;;
19032;SDS011;9649;51.042;13.804;2023-06-22T14:14:55;6.25;;;5.10;;
19032;SDS011;9649;51.042;13.804;2023-06-22T14:19:59;6.13;;;5.03;;
19032;SDS011;9649;51.042;13.804;2023-06-22T14:25:04;6.90;;;5.43;;
19032;SDS011;9649;51.042;13.804;2023-06-22T14:30:07;6.05;;;5.45;;
19032;SDS011;9649;51.042;13.804;2023-06-22T14:35:11;6.85;;;5.47;;
19032;SDS011;9649;51.042;13.804;2023-06-22T14:40:15;7.43;;;5.57;;
19032;SDS011;9649;51.042;13.804;2023-06-22T14:45:18;6.65;;;5.60;;
19032;SDS011;9649;51.042;13.804;2023-06-22T14:50:21;6.50;;;5.35;;
19032;SDS011;9649;51.042;13.804;2023-06-22T14:55:25;7.03;;;5.93;;
19032;SDS011;9649;51.042;13.804;2023-06-22T15:00:28;10.70;;;6.45;;
19032;SDS011;9649;51.042;13.804;2023-06-22T15:05:31;8.18;;;5.97;;
19032;SDS011;9649;51.042;13.804;2023-06-22T15:10:36;10.02;;;5.63;;
19032;SDS011;9649;51.042;13.804;2023-06-22T15:15:39;8.90;;;5.78;;
19032;SDS011;9649;51.042;13.804;2023-06-22T15:20:42;7.75;;;6.38;;
19032;SDS011;9649;51.042;13.804;2023-06-22T15:25:48;7.53;;;6.32;;
19032;SDS011;9649;51.042;13.804;2023-06-22T15:30:50;9.50;;;6.47;;
19032;SDS011;9649;51.042;13.804;2023-06-22T15:35:54;6.45;;;5.82;;
19032;SDS011;9649;51.042;13.804;2023-06-22T15:40:58;10.20;;;5.93;;
19032;SDS011;9649;51.042;13.804;2023-06-22T15:46:01;7.03;;;6.30;;
19032;SDS011;9649;51.042;13.804;2023-06-22T15:51:04;9.25;;;6.53;;
19032;SDS011;9649;51.042;13.804;2023-06-22T15:56:08;10.90;;;6.82;;
19032;SDS011;9649;51.042;13.804;2023-06-22T16:01:11;10.35;;;6.70;;
19032;SDS011;9649;51.042;13.804;2023-06-22T16:06:14;9.00;;;6.10;;
19032;SDS011;9649;51.042;13.804;2023-06-22T16:11:18;10.13;;;6.20;;
19032;SDS011;9649;51.042;13.804;2023-06-22T16:16:21;8.70;;;6.82;;
19032;SDS011;9649;51.042;13.804;2023-06-22T16:21:24;7.03;;;6.38;;
19032;SDS011;9649;51.042;13.804;2023-06-22T16:26:29;8.32;;;6.60;;
19032;SDS011;9649;51.042;13.804;2023-06-22T16:31:32;8.38;;;7.32;;
19032;SDS011;9649;51.042;13.804;2023-06-22T16:36:35;7.20;;;6.40;;
19032;SDS011;9649;51.042;13.804;2023-06-22T16:41:39;8.68;;;6.82;;
19032;SDS011;9649;51.042;13.804;2023-06-22T16:46:43;9.32;;;7.00;;
19032;SDS011;9649;51.042;13.804;2023-06-22T16:51:46;9.18;;;7.10;;
19032;SDS011;9649;51.042;13.804;2023-06-22T16:56:50;9.40;;;7.30;;
19032;SDS011;9649;51.042;13.804;2023-06-22T17:01:54;11.15;;;6.97;;
19032;SDS011;9649;51.042;13.804;2023-06-22T17:07:01;10.43;;;7.13;;
19032;SDS011;9649;51.042;13.804;2023-06-22T17:12:14;10.20;;;6.93;;
19032;SDS011;9649;51.042;13.804;2023-06-22T17:17:19;12.07;;;7.47;;
19032;SDS011;9649;51.042;13.804;2023-06-22T17:22:26;11.15;;;7.43;;
19032;SDS011;9649;51.042;13.804;2023-06-22T17:27:37;8.73;;;7.65;;
19032;SDS011;9649;51.042;13.804;2023-06-22T17:32:43;8.70;;;6.70;;
19032;SDS011;9649;51.042;13.804;2023-06-22T17:37:48;10.05;;;7.38;;
19032;SDS011;9649;51.042;13.804;2023-06-22T17:42:53;9.13;;;7.13;;
19032;SDS011;9649;51.042;13.804;2023-06-22T18:29:02;11.40;;;8.63;;
19032;SDS011;9649;51.042;13.804;2023-06-22T18:34:15;10.38;;;8.40;;
19032;SDS011;9649;51.042;13.804;2023-06-22T18:39:21;14.77;;;8.45;;
19032;SDS011;9649;51.042;13.804;2023-06-22T18:44:26;10.90;;;8.27;;
19032;SDS011;9649;51.042;13.804;2023-06-22T18:49:30;13.10;;;8.50;;
19032;SDS011;9649;51.042;13.804;2023-06-22T18:54:35;11.27;;;8.70;;
19032;SDS011;9649;51.042;13.804;2023-06-22T18:59:45;12.57;;;9.60;;
19032;SDS011;9649;51.042;13.804;2023-06-22T19:04:49;11.80;;;9.13;;
19032;SDS011;9649;51.042;13.804;2023-06-22T19:10:22;11.77;;;9.18;;
19032;SDS011;9649;51.042;13.804;2023-06-22T19:15:31;13.75;;;8.95;;
19032;SDS011;9649;51.042;13.804;2023-06-22T19:20:35;10.00;;;8.95;;
19032;SDS011;9649;51.042;13.804;2023-06-22T19:25:38;13.23;;;9.65;;
19032;SDS011;9649;51.042;13.804;2023-06-22T19:30:49;13.48;;;9.05;;
19032;SDS011;9649;51.042;13.804;2023-06-22T19:35:54;11.82;;;10.05;;
19032;SDS011;9649;51.042;13.804;2023-06-22T19:40:58;18.05;;;10.30;;
19032;SDS011;9649;51.042;13.804;2023-06-22T19:46:03;10.45;;;9.25;;
19032;SDS011;9649;51.042;13.804;2023-06-22T19:51:06;13.52;;;9.40;;
19032;SDS011;9649;51.042;13.804;2023-06-22T19:56:09;12.27;;;9.00;;
19032;SDS011;9649;51.042;13.804;2023-06-22T20:01:13;14.30;;;9.93;;
19032;SDS011;9649;51.042;13.804;2023-06-22T20:06:16;10.60;;;8.88;;
19032;SDS011;9649;51.042;13.804;2023-06-22T20:11:23;10.07;;;9.02;;
19032;SDS011;9649;51.042;13.804;2023-06-22T20:16:29;14.05;;;9.65;;
19032;SDS011;9649;51.042;13.804;2023-06-22T20:21:32;18.45;;;9.48;;
19032;SDS011;9649;51.042;13.804;2023-06-22T20:26:38;10.88;;;8.82;;
19032;SDS011;9649;51.042;13.804;2023-06-22T20:31:43;11.55;;;8.80;;
19032;SDS011;9649;51.042;13.804;2023-06-22T20:36:45;15.13;;;9.43;;
19032;SDS011;9649;51.042;13.804;2023-06-22T20:41:49;10.15;;;8.63;;
19032;SDS011;9649;51.042;13.804;2023-06-22T20:46:53;13.68;;;8.57;;
19032;SDS011;9649;51.042;13.804;2023-06-22T20:51:56;12.43;;;9.07;;
19032;SDS011;9649;51.042;13.804;2023-06-22T20:56:59;12.25;;;10.85;;
19032;SDS011;9649;51.042;13.804;2023-06-22T21:02:03;11.60;;;8.82;;
19032;SDS011;9649;51.042;13.804;2023-06-22T21:07:06;12.32;;;9.00;;
19032;SDS011;9649;51.042;13.804;2023-06-22T21:12:09;11.18;;;9.23;;
19032;SDS011;9649;51.042;13.804;2023-06-22T21:17:13;11.55;;;9.20;;
19032;SDS011;9649;51.042;13.804;2023-06-22T21:22:16;13.30;;;9.50;;
19032;SDS011;9649;51.042;13.804;2023-06-22T21:27:19;12.60;;;9.13;;
19032;SDS011;9649;51.042;13.804;2023-06-22T21:32:23;14.77;;;9.50;;
19032;SDS011;9649;51.042;13.804;2023-06-22T21:37:26;12.13;;;9.73;;
19032;SDS011;9649;51.042;13.804;2023-06-22T21:42:29;13.73;;;10.70;;
19032;SDS011;9649;51.042;13.804;2023-06-22T21:47:33;14.35;;;10.50;;
19032;SDS011;9649;51.042;13.804;2023-06-22T21:52:36;13.52;;;12.00;;
19032;SDS011;9649;51.042;13.804;2023-06-22T21:57:39;14.38;;;12.07;;
19032;SDS011;9649;51.042;13.804;2023-06-22T22:02:43;15.18;;;11.38;;
19032;SDS011;9649;51.042;13.804;2023-06-22T22:07:45;14.60;;;10.70;;
19032;SDS011;9649;51.042;13.804;2023-06-22T22:12:48;12.35;;;9.57;;
19032;SDS011;9649;51.042;13.804;2023-06-22T22:17:52;14.65;;;10.27;;
19032;SDS011;9649;51.042;13.804;2023-06-22T22:22:56;14.77;;;10.90;;
19032;SDS011;9649;51.042;13.804;2023-06-22T22:27:59;16.20;;;10.93;;
19032;SDS011;9649;51.042;13.804;2023-06-22T22:33:03;26.73;;;13.13;;
19032;SDS011;9649;51.042;13.804;2023-06-22T22:38:08;21.15;;;13.73;;
19032;SDS011;9649;51.042;13.804;2023-06-22T22:43:11;19.02;;;12.88;;
19032;SDS011;9649;51.042;13.804;2023-06-22T22:48:15;21.67;;;14.52;;
19032;SDS011;9649;51.042;13.804;2023-06-22T22:53:18;21.05;;;15.30;;
19032;SDS011;9649;51.042;13.804;2023-06-22T22:58:21;25.02;;;15.63;;
19032;SDS011;9649;51.042;13.804;2023-06-22T23:03:25;18.30;;;14.90;;
19032;SDS011;9649;51.042;13.804;2023-06-22T23:08:28;21.65;;;15.05;;
19032;SDS011;9649;51.042;13.804;2023-06-22T23:13:30;37.05;;;14.77;;
19032;SDS011;9649;51.042;13.804;2023-06-22T23:18:35;50.88;;;6.82;;
19032;SDS011;9649;51.042;13.804;2023-06-22T23:23:37;13.75;;;4.93;;
19032;SDS011;9649;51.042;13.804;2023-06-22T23:41:17;7.57;;;1.75;;
19032;SDS011;9649;51.042;13.804;2023-06-22T23:46:56;5.72;;;3.65;;
